AirNav  
 
 885 users online  

H19 Bowling Green Municipal Airport
Bowling Green, Missouri, USA

GOING TO BOWLING GREEN?


FAA INFORMATION EFFECTIVE 01 FEBRUARY 2018

Location

FAA Identifier: H19
Lat/Long: 39-22-11.7000N / 091-13-09.4000W
39-22.195000N / 091-13.156667W
39.3699167 / -91.2192778
(estimated)
Elevation: 886 ft. / 270.1 m (surveyed)
Variation: 01E (2000)
From city: 2 miles NW of BOWLING GREEN, MO
Time zone: UTC -6 (UTC -5 during Daylight Saving Time)
Zip code: 63334

Airport Operations

Airport use: Open to the public
Activation date: 09/1941
Control tower: no
ARTCC: KANSAS CITY CENTER
FSS: SAINT LOUIS FLIGHT SERVICE STATION
NOTAMs facility: STL (NOTAM-D service available)
Attendance: CONTINUOUS
Wind indicator: lighted
Segmented circle: yes
Lights: DUSK-DAWN. ACTVT LIRL RY 13/31 AFT 2100 - CTAF.
Beacon: white-green (lighted land airport)
Operates sunset to sunrise.

Airport Communications

CTAF/UNICOM: 122.8
  • UNICOM NOT MONITORED ON REGULAR BASIS.
  • APCH/DEP SVC PRVDD BY KANSAS CITY ARTCC ON FREQS 126.225/317.775 (QUINCY RCAG).

Nearby radio navigation aids

VOR radial/distance  VOR name  Freq  Var
UINr170/28.8QUINCY VORTAC113.6005E

Airport Services

Fuel available: 100LL
Parking: tiedowns
Bottled oxygen: NONE
Bulk oxygen: NONE

Runway Information

Runway 13/31

Dimensions: 3203 x 50 ft. / 976 x 15 m
Surface: asphalt, in good condition
Weight bearing capacity: 
Single wheel: 12.5
Runway edge lights: low intensity
RWY 13/31 NSTD LIRL; INCORRECT NUMBER OF THLD LGTS AT EACH RWY END, AMBER/WHITE SPLIT LENS MISSING LAST 1602 FT OF EACH RWY.
RUNWAY 13  RUNWAY 31
Latitude: 39-22.380445N39-22.010728N
Longitude: 091-13.398625W091-12.913770W
Elevation: 872.5 ft.886.0 ft.
Traffic pattern: leftleft
Runway heading: 133 magnetic, 134 true313 magnetic, 314 true
Markings: nonprecision, in good conditionnonprecision, in good condition
Touchdown point: yes, no lightsyes, no lights
Obstructions: 36 ft. trees, 421 ft. from runway, 178 ft. right of centerline, 6:1 slope to clear20 ft. tree, 210 ft. from runway, 130 ft. right of centerline
RWY 31 +1-3 FT HI GND; 0-200 FT FROM RWY END 35-250 FT LEFT; +1-4 FT HIGH GND, 0-100 FT FM RWY END, 78-250 FT L. ROAD 184 FT FROM RY END, 175 FT L.

Airport Ownership and Management from official FAA records

Ownership: Publicly-owned
Owner: CITY OF BOWLING GREEN
16 W CHURCH ST
BOWLING GREEN, MO 63334
Phone 573-324-5451
Manager: JIM SAUCIER
16 W CHURCH ST
BOWLING GREEN, MO 63334
Phone 573-324-2278
AIRPORT PHONE (573) 324-3300

Airport Operational Statistics

Aircraft based on the field: 11
Single engine airplanes: 10
Multi engine airplanes: 1
    
Aircraft operations: avg 38/week *
72% local general aviation
23% transient general aviation
3% military
3% air taxi
* for 12-month period ending 31 December 2014

Additional Remarks

DO NOT OVERFLY PRISON AREA.

Instrument Procedures

NOTE: All procedures below are presented as PDF files. If you need a reader for these files, you should download the free Adobe Reader.

NOT FOR NAVIGATION. Please procure official charts for flight.
FAA instrument procedures published for use between 1 February 2018 at 0901Z and 1 March 2018 at 0900Z.

 
IAPs - Instrument Approach Procedures
RNAV (GPS) RWY 13   download (161KB)
RNAV (GPS) RWY 31   download (156KB)
VOR/DME-A   download (155KB)
NOTE: Special Take-Off Minimums/Departure Procedures apply   download (158KB)

Other nearby airports with instrument procedures:

KHAE - Hannibal Regional Airport (24 nm NW)
KPPQ - Pittsfield Penstone Municipal Airport (26 nm NE)
K52 - Cpt Ben Smith Airfield - Monroe City (28 nm NW)
KMYJ - Mexico Memorial Airport (31 nm SW)
KUIN - Quincy Regional Airport-Baldwin Field (34 nm N)
 
Loc | Ops | Rwys | IFR | FBO | Links
Com | Nav | Svcs | Stats | Notes

Kansas City Aviation Department
 
Area around H19 (Bowling Green Municipal Airport)
 
Road maps at: MapQuest Bing Google
 
Aerial photo
WARNING: Photo may not be current or correct
Aerial photo of H19 (Bowling Green Municipal Airport)
Taken in January 2008

Do you have a better or more recent aerial photo of Bowling Green Municipal Airport that you would like to share? If so, please send us your photo.

 
Sectional chart

 
Airport distance calculator
Flying to Bowling Green Municipal Airport? Find the distance to fly.

From to H19

Sunrise and sunset
Times for 21-Feb-2018
 Local
(UTC-6)
 Zulu
(UTC)
Morning civil twilight06:2312:23
Sunrise06:5012:50
Sunset17:4723:47
Evening civil twilight18:1400:14

Current date and time
Zulu (UTC)  22-Feb-2018 03:19:20
Local (UTC-6)  21-Feb-2018 21:19:20
 
METAR
KHAE 
24nm NW 
220235Z AUTO 05004KT 10SM BKN012 OVC050 M01/M03 A3054 RMK AO2
KPPQ 
26nm NE 
220255Z AUTO 03005KT 10SM BKN013 OVC055 M01/M03 A3055 RMK AO2 T10131026
KMYJ 
31nm SW 
220255Z AUTO 06008KT 10SM OVC011 M02/M03 A3051 RMK AO2
KUIN 
35nm N 
220254Z AUTO 06011KT 10SM BKN014 OVC060 M02/M04 A3054 RMK AO2 SLP352 T10221044 58010
KI63 
42nm NE 
220255Z AUTO 05003KT 10SM SCT015 BKN060 M02/M04 A3054 RMK AO2 T10251036
KSET 
45nm SE 
220254Z AUTO 03006KT 9SM OVC013 00/M02 A3052 RMK AO2 SLP341 60000 I3001 T00001017 55018
TAF
KUIN 
35nm N 
211736Z 2118/2218 01013KT P6SM SCT015 BKN250 FM220000 04009KT P6SM SCT020 BKN120 FM220800 05011KT P6SM VCSH OVC040 FM221100 05011KT P6SM VCSH OVC025 FM221500 06009KT P6SM OVC015
NOTAMs
Click for the latest NOTAMs
NOTAMs are issued by the DoD/FAA and will open in a separate window not controlled by AirNav.

 

 
 

FBO, Fuel Providers, and Aircraft Ground Support

  
 Business Name 
 
 Contact 
 
 Services / Description 
 
Fuel Prices
 
Comments
  
City of Bowling Green 573-324-5451
no information available

If you are affiliated with City of Bowling Green and would like to show here your services, contact info, web link, logo, and more, click here
100LL
SS $4.30 
 Updated 15-Sep-2017
 
   write
SS=Self service
Update Fuel Prices
 

Would you like to see your business listed on this page?

 If your business provides an interesting product or service to pilots, flight crews, aircraft, or users of the Bowling Green Municipal Airport, you should consider listing it here.  To start the listing process, click on the button below
 
Add a business
 

Other Pages about Bowling Green Municipal Airport

Update a link
 
Copyright © AirNav, LLC. All rights reserved. Privacy Policy  Contact